createdAt,value
2023-04-22T00:00:52.548Z,9.18
2023-04-22T00:03:19.120Z,10.80
2023-04-22T00:05:47.099Z,9.80
2023-04-22T00:08:13.502Z,10.77
2023-04-22T00:10:39.905Z,10.38
2023-04-22T00:13:06.305Z,10.13
2023-04-22T00:15:32.750Z,11.15
2023-04-22T00:17:59.314Z,9.50
2023-04-22T00:20:25.775Z,9.90
2023-04-22T00:22:53.521Z,10.48
2023-04-22T00:25:19.895Z,10.50
2023-04-22T00:27:46.310Z,10.50
2023-04-22T00:30:12.960Z,10.15
2023-04-22T00:32:39.369Z,10.00
2023-04-22T00:35:06.289Z,9.57
2023-04-22T00:37:32.705Z,9.45
2023-04-22T00:40:00.435Z,9.73
2023-04-22T00:42:26.914Z,9.15
2023-04-22T00:44:53.280Z,9.40
2023-04-22T00:47:20.420Z,9.35
2023-04-22T00:49:47.081Z,9.57
2023-04-22T00:52:13.439Z,10.13
2023-04-22T00:54:39.884Z,9.02
2023-04-22T00:57:07.691Z,9.20
2023-04-22T00:59:34.045Z,9.13
2023-04-22T01:02:00.483Z,9.48
2023-04-22T01:04:26.967Z,8.30
2023-04-22T01:06:53.407Z,8.77
2023-04-22T01:09:20.070Z,8.63
2023-04-22T01:11:46.524Z,8.20
2023-04-22T01:14:14.300Z,7.72
2023-04-22T01:16:41.090Z,7.40
2023-04-22T01:19:08.273Z,7.45
2023-04-22T01:21:35.034Z,7.90
2023-04-22T01:24:03.154Z,7.72
2023-04-22T01:26:29.689Z,7.50
2023-04-22T01:28:56.077Z,7.68
2023-04-22T01:31:22.526Z,7.80
2023-04-22T01:33:49.192Z,7.80
2023-04-22T01:36:16.507Z,7.85
2023-04-22T01:38:42.941Z,8.00
2023-04-22T01:41:10.737Z,8.15
2023-04-22T01:43:37.410Z,8.68
2023-04-22T01:46:04.627Z,8.35
2023-04-22T01:48:31.101Z,9.43
2023-04-22T01:50:57.487Z,9.35
2023-04-22T01:53:24.429Z,9.60
2023-04-22T01:55:50.959Z,8.77
2023-04-22T01:58:18.782Z,8.65
2023-04-22T02:00:45.181Z,8.55
2023-04-22T02:03:11.666Z,8.30
2023-04-22T02:05:38.132Z,8.88
2023-04-22T02:08:04.516Z,9.00
2023-04-22T02:10:30.949Z,8.40
2023-04-22T02:12:57.605Z,9.05
2023-04-22T02:15:25.316Z,8.77
2023-04-22T02:17:51.687Z,8.18
2023-04-22T02:20:18.127Z,8.88
2023-04-22T02:22:44.653Z,9.02
2023-04-22T02:25:11.282Z,8.95
2023-04-22T02:27:37.783Z,8.50
2023-04-22T02:30:04.630Z,9.02
2023-04-22T02:32:32.422Z,8.32
2023-04-22T02:34:58.917Z,7.93
2023-04-22T02:37:25.363Z,7.95
2023-04-22T02:39:51.765Z,8.50
2023-04-22T02:42:18.123Z,8.75
2023-04-22T02:44:44.505Z,8.02
2023-04-22T02:47:10.860Z,8.18
2023-04-22T02:49:38.950Z,8.82
2023-04-22T02:52:05.475Z,8.70
2023-04-22T02:54:31.876Z,8.95
2023-04-22T02:56:58.301Z,9.25
2023-04-22T02:59:24.721Z,8.73
2023-04-22T03:01:51.135Z,8.70
2023-04-22T03:04:17.646Z,9.13
2023-04-22T03:06:45.502Z,8.52
2023-04-22T03:09:11.909Z,8.60
2023-04-22T03:11:38.253Z,8.45
2023-04-22T03:14:04.675Z,9.23
2023-04-22T03:16:31.100Z,9.40
2023-04-22T03:18:57.506Z,9.05
2023-04-22T03:21:23.894Z,8.70
2023-04-22T03:23:51.642Z,9.15
2023-04-22T03:26:18.025Z,8.70
2023-04-22T03:28:44.387Z,8.68
2023-04-22T03:31:10.771Z,8.98
2023-04-22T03:33:37.158Z,8.30
2023-04-22T03:36:03.618Z,9.00
2023-04-22T03:38:30.010Z,8.48
2023-04-22T03:40:57.793Z,8.82
2023-04-22T03:43:24.119Z,9.30
2023-04-22T03:45:51.147Z,8.98
2023-04-22T03:48:17.578Z,9.32
2023-04-22T03:50:43.972Z,8.55
2023-04-22T03:53:10.328Z,8.85
2023-04-22T03:55:36.682Z,9.18
2023-04-22T03:58:04.460Z,8.85
2023-04-22T04:00:30.808Z,9.27
2023-04-22T04:02:57.428Z,9.70
2023-04-22T04:05:24.158Z,9.32
2023-04-22T04:07:50.543Z,9.57
2023-04-22T04:10:16.910Z,9.10
2023-04-22T04:12:43.269Z,9.35
2023-04-22T04:15:11.202Z,9.90
2023-04-22T04:17:37.656Z,9.38
2023-04-22T04:20:04.427Z,9.60
2023-04-22T04:22:30.770Z,9.65
2023-04-22T04:24:57.116Z,9.50
2023-04-22T04:27:23.677Z,9.82
2023-04-22T04:29:50.040Z,10.77
2023-04-22T04:32:17.824Z,10.30
2023-04-22T04:34:44.192Z,9.90
2023-04-22T04:37:10.562Z,9.68
2023-04-22T04:39:37.185Z,9.40
2023-04-22T04:42:03.741Z,9.90
2023-04-22T04:44:30.115Z,9.15
2023-04-22T04:46:56.545Z,9.00
2023-04-22T04:49:24.375Z,9.27
2023-04-22T04:51:50.781Z,9.23
2023-04-22T04:54:17.173Z,9.40
2023-04-22T04:56:43.561Z,9.85
2023-04-22T04:59:09.906Z,8.60
2023-04-22T05:01:36.379Z,8.80
2023-04-22T05:04:03.063Z,8.98
2023-04-22T05:06:30.920Z,9.02
2023-04-22T05:08:58.604Z,8.85
2023-04-22T05:11:24.963Z,8.75
2023-04-22T05:13:51.351Z,8.77
2023-04-22T05:16:17.794Z,9.05
2023-04-22T05:18:44.203Z,9.60
2023-04-22T05:21:10.600Z,9.48
2023-04-22T05:23:38.339Z,9.25
2023-04-22T05:26:04.726Z,10.23
2023-04-22T05:28:31.149Z,9.77
2023-04-22T05:30:57.648Z,9.68
2023-04-22T05:33:24.021Z,9.50
2023-04-22T05:35:50.417Z,9.52
2023-04-22T05:38:16.882Z,10.13
2023-04-22T05:40:44.646Z,9.73
2023-04-22T05:43:11.042Z,9.43
2023-04-22T05:45:37.433Z,10.40
2023-04-22T05:48:03.939Z,10.43
2023-04-22T05:50:30.327Z,9.43
2023-04-22T05:52:56.688Z,8.77
2023-04-22T05:55:23.086Z,9.95
2023-04-22T05:57:50.802Z,8.85
2023-04-22T06:00:17.849Z,8.82
2023-04-22T06:02:44.382Z,9.15
2023-04-22T06:05:10.909Z,8.60
2023-04-22T06:07:37.360Z,9.07
2023-04-22T06:10:05.422Z,8.40
2023-04-22T06:12:32.857Z,8.85
2023-04-22T06:15:00.609Z,8.20
2023-04-22T06:17:27.026Z,8.88
2023-04-22T06:19:53.405Z,7.93
2023-04-22T06:22:21.279Z,7.78
2023-04-22T06:24:48.248Z,7.10
2023-04-22T06:27:14.794Z,7.15
2023-04-22T06:29:41.414Z,6.65
2023-04-22T06:32:09.296Z,7.43
2023-04-22T06:34:35.676Z,6.45
2023-04-22T06:37:02.094Z,7.75
2023-04-22T06:39:28.446Z,7.45
2023-04-22T06:41:54.886Z,6.60
2023-04-22T06:44:21.607Z,6.80
2023-04-22T06:46:48.074Z,6.90
2023-04-22T06:49:15.821Z,6.68
2023-04-22T06:51:42.224Z,6.93
2023-04-22T06:54:08.602Z,6.70
2023-04-22T06:56:35.196Z,6.70
2023-04-22T06:59:01.612Z,6.93
2023-04-22T07:01:28.050Z,12.63
2023-04-22T07:03:54.506Z,9.10
2023-04-22T07:06:22.383Z,6.35
2023-04-22T07:08:48.797Z,6.32
2023-04-22T07:11:15.143Z,6.35
2023-04-22T07:13:41.568Z,6.35
2023-04-22T07:16:08.070Z,6.82
2023-04-22T07:18:34.529Z,5.63
2023-04-22T07:21:00.876Z,9.68
2023-04-22T07:23:28.580Z,5.60
2023-04-22T07:25:54.941Z,5.75
2023-04-22T07:28:21.295Z,5.70
2023-04-22T07:30:47.691Z,5.60
2023-04-22T07:33:14.057Z,6.18
2023-04-22T07:35:40.449Z,6.07
2023-04-22T07:38:08.090Z,5.78
2023-04-22T07:40:36.947Z,5.75
2023-04-22T07:43:03.680Z,6.20
2023-04-22T07:45:30.393Z,5.57
2023-04-22T07:47:57.635Z,6.28
2023-04-22T07:50:24.921Z,5.75
2023-04-22T07:52:51.546Z,6.18
2023-04-22T07:55:18.817Z,5.85
2023-04-22T07:57:47.469Z,5.80
2023-04-22T08:00:15.242Z,5.63
2023-04-22T08:02:41.862Z,5.75
2023-04-22T08:05:08.431Z,5.85
2023-04-22T08:07:34.911Z,5.60
2023-04-22T08:10:01.319Z,6.10
2023-04-22T08:12:27.849Z,5.53
2023-04-22T08:14:56.491Z,6.50
2023-04-22T08:17:22.881Z,5.87
2023-04-22T08:19:49.497Z,5.30
2023-04-22T08:22:15.891Z,5.43
2023-04-22T08:24:42.349Z,5.10
2023-04-22T08:27:08.716Z,5.68
2023-04-22T08:29:35.049Z,5.60
2023-04-22T08:32:03.133Z,6.72
2023-04-22T08:34:29.565Z,13.07
2023-04-22T08:36:55.973Z,7.63
2023-04-22T08:39:22.308Z,6.75
2023-04-22T08:41:48.859Z,5.80
2023-04-22T08:44:15.945Z,5.82
2023-04-22T08:46:43.888Z,5.95
2023-04-22T08:49:12.180Z,6.07
2023-04-22T08:51:38.780Z,6.82
2023-04-22T08:54:05.358Z,5.88
2023-04-22T08:56:32.026Z,5.70
2023-04-22T08:58:58.618Z,8.40
2023-04-22T09:01:25.417Z,6.82
2023-04-22T09:03:52.410Z,33.45
2023-04-22T09:06:20.986Z,16.70
2023-04-22T09:08:47.604Z,7.50
2023-04-22T09:11:14.056Z,6.20
2023-04-22T09:13:40.593Z,5.47
2023-04-22T09:16:06.946Z,5.15
2023-04-22T09:18:38.742Z,4.93
2023-04-22T09:21:05.248Z,6.50
2023-04-22T09:23:33.374Z,5.40
2023-04-22T09:25:59.979Z,5.65
2023-04-22T09:28:26.618Z,10.57
2023-04-22T09:30:55.074Z,5.13
2023-04-22T09:33:21.645Z,4.45
2023-04-22T09:35:48.137Z,4.85
2023-04-22T09:38:14.615Z,7.43
2023-04-22T09:40:43.671Z,6.35
2023-04-22T09:43:10.846Z,4.32
2023-04-22T09:45:38.384Z,5.13
2023-04-22T09:48:07.385Z,4.80
2023-04-22T09:50:33.809Z,4.90
2023-04-22T09:53:02.089Z,5.22
2023-04-22T09:55:29.614Z,5.88
2023-04-22T09:57:57.819Z,8.85
2023-04-22T10:00:25.498Z,11.65
2023-04-22T10:02:55.448Z,6.10
2023-04-22T10:05:22.144Z,6.47
2023-04-22T10:07:48.879Z,14.18
2023-04-22T10:10:15.386Z,10.85
2023-04-22T10:12:42.721Z,6.78
2023-04-22T10:15:11.000Z,6.68
2023-04-22T10:17:39.001Z,5.30
2023-04-22T10:20:07.182Z,6.03
2023-04-22T10:22:34.529Z,4.05
2023-04-22T10:25:01.168Z,24.70
2023-04-22T10:27:27.585Z,5.25
2023-04-22T10:29:56.083Z,4.78
2023-04-22T10:32:27.212Z,4.27
2023-04-22T10:35:10.468Z,7.78
2023-04-22T10:37:37.019Z,5.15
2023-04-22T10:40:10.623Z,4.25
2023-04-22T10:42:38.916Z,4.28
2023-04-22T10:45:05.867Z,3.78
2023-04-22T10:47:34.642Z,4.60
2023-04-22T10:50:10.908Z,4.32
2023-04-22T10:52:37.706Z,3.97
2023-04-22T10:55:04.545Z,3.90
2023-04-22T10:57:32.445Z,4.63
2023-04-22T10:59:59.039Z,5.22
2023-04-22T11:02:25.592Z,6.38
2023-04-22T11:05:16.034Z,5.47
2023-04-22T11:07:42.559Z,4.85
2023-04-22T11:10:09.392Z,4.38
2023-04-22T11:12:42.179Z,4.00
2023-04-22T11:15:09.378Z,3.90
2023-04-22T11:17:35.983Z,4.43
2023-04-22T11:20:04.804Z,4.13
2023-04-22T11:22:34.363Z,4.03
2023-04-22T11:25:01.292Z,4.65
2023-04-22T11:27:32.392Z,4.03
2023-04-22T11:30:02.065Z,4.55
2023-04-22T11:32:28.845Z,6.05
2023-04-22T11:34:55.673Z,5.07
2023-04-22T11:37:24.049Z,4.50
2023-04-22T11:40:08.053Z,5.80
2023-04-22T11:42:37.134Z,7.78
2023-04-22T11:45:04.068Z,4.32
2023-04-22T11:47:30.638Z,4.35
2023-04-22T11:49:57.639Z,4.50
2023-04-22T11:52:42.112Z,4.13
2023-04-22T11:55:10.610Z,4.18
2023-04-22T11:57:37.140Z,4.07
2023-04-22T12:00:04.155Z,4.00
2023-04-22T12:02:33.060Z,3.97
2023-04-22T12:04:59.586Z,3.40
2023-04-22T12:07:27.984Z,4.25
2023-04-22T12:09:54.358Z,4.18
2023-04-22T12:12:23.989Z,3.92
2023-04-22T12:14:50.360Z,3.92
2023-04-22T12:17:16.972Z,4.72
2023-04-22T12:19:46.779Z,4.82
2023-04-22T12:22:13.241Z,4.18
2023-04-22T12:24:44.957Z,3.85
2023-04-22T12:27:11.323Z,4.07
2023-04-22T12:29:37.942Z,4.25
2023-04-22T12:32:04.583Z,3.60
2023-04-22T12:34:31.083Z,3.50
2023-04-22T12:36:57.679Z,3.50
2023-04-22T12:39:24.096Z,3.72
2023-04-22T12:41:51.888Z,4.10
2023-04-22T12:44:18.310Z,3.70
2023-04-22T12:46:44.866Z,3.42
2023-04-22T12:49:11.402Z,3.58
2023-04-22T12:51:37.998Z,3.67
2023-04-22T12:54:04.386Z,3.40
2023-04-22T12:56:30.967Z,3.65
2023-04-22T12:58:58.775Z,3.60
2023-04-22T13:01:25.267Z,3.80
2023-04-22T13:03:52.003Z,3.55
2023-04-22T13:06:18.605Z,3.30
2023-04-22T13:08:45.001Z,3.58
2023-04-22T13:11:11.393Z,3.17
2023-04-22T13:13:37.817Z,3.00
2023-04-22T13:16:05.660Z,3.42
2023-04-22T13:18:32.155Z,3.40
2023-04-22T13:20:58.564Z,2.97
2023-04-22T13:23:24.984Z,3.33
2023-04-22T13:25:52.320Z,2.63
2023-04-22T13:28:18.922Z,3.53
2023-04-22T13:30:45.322Z,2.90
2023-04-22T13:33:13.117Z,3.70
2023-04-22T13:35:39.490Z,3.13
2023-04-22T13:38:06.194Z,3.45
2023-04-22T13:40:32.616Z,3.13
2023-04-22T13:42:59.003Z,3.47
2023-04-22T13:45:25.505Z,3.00
2023-04-22T13:47:52.482Z,2.90
2023-04-22T13:50:20.483Z,2.80
2023-04-22T13:52:47.360Z,3.20
2023-04-22T13:55:13.934Z,3.20
2023-04-22T13:57:40.330Z,3.08
2023-04-22T14:00:07.527Z,3.40
2023-04-22T14:02:34.002Z,3.60
2023-04-22T14:05:00.495Z,3.25
2023-04-22T14:07:28.620Z,3.17
2023-04-22T14:09:55.031Z,3.60
2023-04-22T14:12:23.298Z,3.33
2023-04-22T14:14:49.715Z,3.05
2023-04-22T14:17:16.106Z,3.22
2023-04-22T14:19:42.674Z,3.22
2023-04-22T14:22:09.212Z,2.90
2023-04-22T14:24:36.942Z,3.25
2023-04-22T14:27:03.469Z,3.60
2023-04-22T14:29:29.880Z,3.15
2023-04-22T14:31:56.338Z,3.08
2023-04-22T14:34:22.724Z,3.30
2023-04-22T14:36:49.116Z,3.20
2023-04-22T14:39:15.476Z,2.97
2023-04-22T14:41:43.241Z,3.30
2023-04-22T14:44:09.605Z,2.83
2023-04-22T14:46:36.004Z,3.25
2023-04-22T14:49:02.453Z,3.22
2023-04-22T14:51:28.980Z,3.28
2023-04-22T14:53:55.896Z,2.53
2023-04-22T14:56:22.452Z,3.20
2023-04-22T14:58:50.249Z,3.00
2023-04-22T15:01:16.972Z,2.80
2023-04-22T15:03:43.717Z,3.33
2023-04-22T15:06:10.264Z,3.10
2023-04-22T15:08:36.628Z,3.10
2023-04-22T15:11:03.022Z,2.72
2023-04-22T15:13:29.374Z,3.00
2023-04-22T15:15:57.182Z,3.00
2023-04-22T15:18:23.599Z,3.15
2023-04-22T15:20:49.950Z,3.35
2023-04-22T15:23:16.370Z,3.00
2023-04-22T15:25:42.829Z,3.03
2023-04-22T15:28:09.257Z,2.80
2023-04-22T15:30:35.624Z,2.85
2023-04-22T15:33:03.976Z,2.72
2023-04-22T15:35:30.620Z,2.80
2023-04-22T15:37:57.421Z,2.90
2023-04-22T15:40:24.005Z,2.85
2023-04-22T15:42:50.380Z,2.83
2023-04-22T15:45:16.867Z,3.40
2023-04-22T15:47:43.329Z,2.78
2023-04-22T15:50:11.438Z,2.50
2023-04-22T15:52:38.515Z,2.88
2023-04-22T15:55:05.132Z,3.13
2023-04-22T15:57:31.591Z,2.60
2023-04-22T16:00:09.400Z,2.50
2023-04-22T16:02:38.115Z,2.53
2023-04-22T16:05:04.796Z,2.65
2023-04-22T16:07:32.598Z,2.85
2023-04-22T16:09:59.040Z,2.83
2023-04-22T16:12:25.425Z,2.30
2023-04-22T16:14:51.828Z,2.78
2023-04-22T16:17:18.339Z,2.47
2023-04-22T16:19:44.749Z,3.08
2023-04-22T16:22:11.192Z,3.10
2023-04-22T16:24:38.988Z,3.08
2023-04-22T16:27:05.562Z,2.70
2023-04-22T16:29:31.953Z,2.90
2023-04-22T16:31:58.662Z,3.00
2023-04-22T16:34:25.026Z,3.10
2023-04-22T16:36:51.486Z,2.75
2023-04-22T16:39:17.880Z,2.70
2023-04-22T16:41:45.687Z,2.30
2023-04-22T16:44:14.328Z,2.58
2023-04-22T16:46:40.768Z,2.60
2023-04-22T16:49:09.140Z,2.85
2023-04-22T16:51:36.824Z,2.50
2023-04-22T16:54:03.410Z,2.58
2023-04-22T16:56:29.817Z,2.83
2023-04-22T16:58:57.607Z,2.75
2023-04-22T17:01:24.112Z,3.53
2023-04-22T17:03:50.776Z,2.90
2023-04-22T17:06:17.525Z,3.20
2023-04-22T17:08:43.990Z,2.45
2023-04-22T17:11:11.069Z,2.80
2023-04-22T17:13:37.559Z,2.42
2023-04-22T17:16:07.738Z,2.80
2023-04-22T17:18:34.147Z,3.13
2023-04-22T17:21:00.523Z,3.63
2023-04-22T17:23:26.981Z,2.95
2023-04-22T17:25:53.424Z,3.17
2023-04-22T17:28:19.779Z,2.95
2023-04-22T17:30:46.251Z,2.95
2023-04-22T17:33:14.022Z,3.15
2023-04-22T17:35:40.456Z,3.30
2023-04-22T17:38:06.880Z,3.08
2023-04-22T17:40:33.275Z,2.90
2023-04-22T17:42:59.707Z,2.47
2023-04-22T17:45:26.095Z,2.78
2023-04-22T17:47:52.505Z,2.85
2023-04-22T17:50:20.334Z,2.90
2023-04-22T17:52:46.737Z,3.30
2023-04-22T17:55:13.140Z,2.58
2023-04-22T17:57:39.534Z,3.17
2023-04-22T18:00:06.577Z,3.05
2023-04-22T18:02:33.095Z,2.50
2023-04-22T18:04:59.570Z,2.80
2023-04-22T18:07:27.455Z,2.78
2023-04-22T18:09:53.797Z,2.85
2023-04-22T18:12:20.371Z,2.80
2023-04-22T18:14:47.016Z,3.38
2023-04-22T18:17:13.376Z,3.03
2023-04-22T18:19:40.037Z,3.05
2023-04-22T18:22:06.603Z,2.92
2023-04-22T18:24:34.452Z,3.22
2023-04-22T18:27:00.884Z,3.20
2023-04-22T18:29:27.337Z,2.95
2023-04-22T18:31:53.785Z,3.40
2023-04-22T18:34:20.345Z,3.05
2023-04-22T18:36:46.779Z,3.67
2023-04-22T18:39:13.195Z,3.50
2023-04-22T18:41:41.093Z,3.30
2023-04-22T18:44:07.554Z,3.40
2023-04-22T18:46:34.043Z,3.85
2023-04-22T18:49:00.557Z,3.88
2023-04-22T18:51:27.076Z,4.00
2023-04-22T18:53:53.676Z,4.20
2023-04-22T18:56:20.267Z,4.28
2023-04-22T18:58:48.095Z,4.28
2023-04-22T19:01:14.641Z,4.13
2023-04-22T19:03:41.245Z,5.43
2023-04-22T19:06:07.746Z,4.50
2023-04-22T19:08:34.232Z,4.35
2023-04-22T19:11:01.002Z,3.60
2023-04-22T19:13:30.118Z,4.30
2023-04-22T19:18:24.528Z,5.10
2023-04-22T19:20:51.012Z,5.22
2023-04-22T19:23:17.629Z,6.25
2023-04-22T19:25:44.017Z,6.13
2023-04-22T19:28:10.482Z,4.93
2023-04-22T19:30:36.892Z,5.25
2023-04-22T19:33:03.473Z,4.85
2023-04-22T19:35:31.269Z,4.93
2023-04-22T19:37:57.654Z,5.10
2023-04-22T19:40:24.049Z,4.70
2023-04-22T19:42:50.425Z,5.10
2023-04-22T19:45:16.848Z,6.47
2023-04-22T19:47:43.439Z,6.65
2023-04-22T19:50:10.157Z,5.88
2023-04-22T19:52:39.750Z,7.63
2023-04-22T19:55:06.865Z,6.47
2023-04-22T19:57:33.352Z,7.00
2023-04-22T20:00:00.134Z,6.85
2023-04-22T20:02:26.868Z,5.80
2023-04-22T20:04:53.620Z,6.60
2023-04-22T20:07:20.183Z,6.20
2023-04-22T20:09:48.193Z,6.05
2023-04-22T20:12:14.850Z,6.13
2023-04-22T20:14:41.434Z,7.82
2023-04-22T20:17:07.972Z,7.00
2023-04-22T20:19:34.479Z,7.10
2023-04-22T20:22:02.186Z,7.68
2023-04-22T20:24:28.800Z,7.28
2023-04-22T20:26:56.912Z,7.45
2023-04-22T20:29:23.774Z,6.32
2023-04-22T20:31:50.350Z,6.97
2023-04-22T20:34:16.780Z,7.05
2023-04-22T20:36:43.451Z,6.95
2023-04-22T20:39:12.477Z,6.55
2023-04-22T20:41:39.099Z,7.15
2023-04-22T20:44:06.957Z,7.40
2023-04-22T20:46:33.351Z,7.45
2023-04-22T20:48:59.717Z,6.45
2023-04-22T20:51:26.146Z,7.00
2023-04-22T20:53:52.577Z,6.88
2023-04-22T20:56:18.940Z,6.88
2023-04-22T20:58:45.307Z,6.50
2023-04-22T21:01:13.540Z,6.55
2023-04-22T21:03:40.418Z,6.18
2023-04-22T21:06:07.676Z,6.57
2023-04-22T21:08:35.758Z,7.40
2023-04-22T21:11:02.524Z,6.95
2023-04-22T21:13:29.229Z,7.50
2023-04-22T21:15:58.352Z,7.70
2023-04-22T21:18:26.473Z,7.53
2023-04-22T21:20:53.009Z,7.57
2023-04-22T21:23:19.631Z,7.05
2023-04-22T21:25:46.525Z,6.97
2023-04-22T21:28:13.382Z,7.35
2023-04-22T21:30:40.416Z,7.13
2023-04-22T21:33:06.874Z,6.78
2023-04-22T21:35:34.612Z,6.88
2023-04-22T21:38:01.075Z,7.07
2023-04-22T21:40:27.513Z,7.25
2023-04-22T21:42:53.898Z,6.90
2023-04-22T21:45:20.281Z,8.10
2023-04-22T21:47:46.780Z,8.35
2023-04-22T21:50:13.177Z,8.40
2023-04-22T21:52:41.015Z,9.18
2023-04-22T21:55:07.764Z,9.07
2023-04-22T21:57:34.225Z,10.25
2023-04-22T22:00:00.566Z,10.57
2023-04-22T22:02:27.129Z,14.88
2023-04-22T22:04:53.730Z,16.35
2023-04-22T22:07:20.339Z,17.02
2023-04-22T22:09:48.113Z,17.33
2023-04-22T22:12:14.446Z,22.42
2023-04-22T22:14:41.048Z,24.15
2023-04-22T22:17:07.600Z,26.08
2023-04-22T22:19:34.007Z,25.73
2023-04-22T22:22:00.420Z,23.98
2023-04-22T22:24:26.798Z,29.77
2023-04-22T22:26:54.614Z,27.50
2023-04-22T22:29:20.949Z,30.58
2023-04-22T22:31:47.338Z,30.10
2023-04-22T22:34:13.780Z,34.17
2023-04-22T22:36:40.183Z,32.35
2023-04-22T22:39:06.605Z,32.75
2023-04-22T22:41:32.987Z,30.42
2023-04-22T22:44:00.790Z,26.88
2023-04-22T22:46:27.254Z,25.55
2023-04-22T22:48:53.729Z,25.48
2023-04-22T22:51:20.087Z,24.20
2023-04-22T22:53:46.502Z,26.42
2023-04-22T22:56:12.870Z,23.88
2023-04-22T22:58:39.218Z,23.17
2023-04-22T23:01:07.033Z,21.25
2023-04-22T23:03:33.850Z,20.55
2023-04-22T23:06:00.338Z,19.75
2023-04-22T23:08:26.704Z,21.33
2023-04-22T23:10:53.054Z,23.17
2023-04-22T23:13:19.432Z,25.27
2023-04-22T23:15:45.821Z,23.15
2023-04-22T23:18:16.154Z,25.27
2023-04-22T23:20:43.186Z,25.05
2023-04-22T23:23:09.615Z,24.90
2023-04-22T23:25:36.246Z,26.30
2023-04-22T23:28:02.971Z,23.73
2023-04-22T23:30:29.639Z,25.80
2023-04-22T23:32:57.067Z,25.15
2023-04-22T23:35:24.966Z,24.17
2023-04-22T23:37:51.703Z,25.63
2023-04-22T23:40:18.204Z,28.13
2023-04-22T23:42:44.531Z,26.10
2023-04-22T23:45:11.150Z,25.60
2023-04-22T23:47:37.696Z,23.63
2023-04-22T23:50:04.304Z,23.58
2023-04-22T23:52:32.046Z,20.20
2023-04-22T23:54:58.691Z,21.23
2023-04-22T23:57:25.266Z,22.35
2023-04-22T23:59:51.906Z,21.70
